LFLC/CFE METAR and TAF weather

Enter ICAO airport designator
Station Type Date Time Source
LFLC METAR 2019/05/21 21:00 UTC NOAA

LFLC 212100Z AUTO 31004KT 290V350 CAVOK 13/07 Q1019 NOSIG


Station Type Date Time Source
LFLC Decoded METAR 2019/05/21 21:00 UTC NOAA

Clermont-Ferrand, France (LFLC) 45-47N 003-10E 330M
May 21, 2019 - 05:00 PM EDT / 2019.05.21 2100 UTC
Wind: from the NW (310 degrees) at 5 MPH (4 KT) (direction variable):0
Visibility: greater than 7 mile(s):0
Temperature: 55 F (13 C)
Dew Point: 44 F (7 C)
Relative Humidity: 66%
Pressure (altimeter): 30.09 in. Hg (1019 hPa)
ob: LFLC 212100Z AUTO 31004KT 290V350 CAVOK 13/07 Q1019 NOSIG
cycle: 21

Station Type Date Time Source
LFLC TAF 2019/05/21 21:21 UTC NOAA

TAF LFLC 212000Z 2121/2221 VRB03KT CAVOK PROB40
TEMPO 2203/2208 3000 BR BKN010
BECMG 2208/2210 SCT020
BECMG 2210/2212 04007KT CAVOK

Example: see airport list